sensor_id;sensor_type;location;lat;lon;timestamp;P1;durP1;ratioP1;P2;durP2;ratioP2
43919;SDS011;29578;51.946;5.874;2023-05-10T00:00:23;2.38;;;1.40;;
43919;SDS011;29578;51.946;5.874;2023-05-10T00:02:49;1.80;;;1.23;;
43919;SDS011;29578;51.946;5.874;2023-05-10T00:05:15;2.80;;;1.42;;
43919;SDS011;29578;51.946;5.874;2023-05-10T00:07:40;2.33;;;1.40;;
43919;SDS011;29578;51.946;5.874;2023-05-10T00:10:09;2.20;;;1.30;;
43919;SDS011;29578;51.946;5.874;2023-05-10T00:12:36;2.58;;;1.33;;
43919;SDS011;29578;51.946;5.874;2023-05-10T00:15:01;3.15;;;1.65;;
43919;SDS011;29578;51.946;5.874;2023-05-10T00:17:27;2.03;;;1.55;;
43919;SDS011;29578;51.946;5.874;2023-05-10T00:19:53;2.75;;;1.50;;
43919;SDS011;29578;51.946;5.874;2023-05-10T00:22:19;2.92;;;1.73;;
43919;SDS011;29578;51.946;5.874;2023-05-10T00:24:45;2.80;;;1.80;;
43919;SDS011;29578;51.946;5.874;2023-05-10T00:27:11;2.95;;;1.73;;
43919;SDS011;29578;51.946;5.874;2023-05-10T00:29:36;3.72;;;2.00;;
43919;SDS011;29578;51.946;5.874;2023-05-10T00:32:02;2.75;;;1.60;;
43919;SDS011;29578;51.946;5.874;2023-05-10T00:34:28;3.25;;;1.85;;
43919;SDS011;29578;51.946;5.874;2023-05-10T00:36:54;3.33;;;1.83;;
43919;SDS011;29578;51.946;5.874;2023-05-10T00:39:19;3.30;;;1.80;;
43919;SDS011;29578;51.946;5.874;2023-05-10T00:41:45;3.08;;;1.70;;
43919;SDS011;29578;51.946;5.874;2023-05-10T00:44:11;3.40;;;1.92;;
43919;SDS011;29578;51.946;5.874;2023-05-10T00:46:36;4.18;;;2.20;;
43919;SDS011;29578;51.946;5.874;2023-05-10T00:49:02;4.20;;;2.10;;
43919;SDS011;29578;51.946;5.874;2023-05-10T00:51:28;2.65;;;1.70;;
43919;SDS011;29578;51.946;5.874;2023-05-10T00:53:53;3.85;;;2.20;;
43919;SDS011;29578;51.946;5.874;2023-05-10T00:56:21;2.72;;;1.70;;
43919;SDS011;29578;51.946;5.874;2023-05-10T00:58:48;3.42;;;2.00;;
43919;SDS011;29578;51.946;5.874;2023-05-10T01:01:14;3.10;;;1.70;;
43919;SDS011;29578;51.946;5.874;2023-05-10T01:03:40;3.13;;;1.55;;
43919;SDS011;29578;51.946;5.874;2023-05-10T01:06:06;2.95;;;1.70;;
43919;SDS011;29578;51.946;5.874;2023-05-10T01:08:32;3.78;;;2.10;;
43919;SDS011;29578;51.946;5.874;2023-05-10T01:10:58;3.00;;;1.90;;
43919;SDS011;29578;51.946;5.874;2023-05-10T01:13:40;3.20;;;1.95;;
43919;SDS011;29578;51.946;5.874;2023-05-10T01:16:08;4.57;;;2.47;;
43919;SDS011;29578;51.946;5.874;2023-05-10T01:18:36;4.28;;;2.45;;
43919;SDS011;29578;51.946;5.874;2023-05-10T01:21:15;5.13;;;2.22;;
43919;SDS011;29578;51.946;5.874;2023-05-10T01:26:56;3.97;;;2.22;;
43919;SDS011;29578;51.946;5.874;2023-05-10T01:29:58;3.92;;;2.03;;
43919;SDS011;29578;51.946;5.874;2023-05-10T01:32:52;4.28;;;2.53;;
43919;SDS011;29578;51.946;5.874;2023-05-10T01:35:36;4.72;;;2.58;;
43919;SDS011;29578;51.946;5.874;2023-05-10T01:38:19;4.53;;;2.28;;
43919;SDS011;29578;51.946;5.874;2023-05-10T01:41:02;3.80;;;2.10;;
43919;SDS011;29578;51.946;5.874;2023-05-10T01:43:41;3.83;;;1.98;;
43919;SDS011;29578;51.946;5.874;2023-05-10T01:46:24;2.85;;;1.70;;
43919;SDS011;29578;51.946;5.874;2023-05-10T01:48:57;2.97;;;1.77;;
43919;SDS011;29578;51.946;5.874;2023-05-10T01:51:26;3.80;;;2.10;;
43919;SDS011;29578;51.946;5.874;2023-05-10T01:54:00;3.17;;;1.90;;
43919;SDS011;29578;51.946;5.874;2023-05-10T01:56:28;3.47;;;2.00;;
43919;SDS011;29578;51.946;5.874;2023-05-10T01:58:55;3.35;;;1.90;;
43919;SDS011;29578;51.946;5.874;2023-05-10T02:01:23;4.25;;;2.20;;
43919;SDS011;29578;51.946;5.874;2023-05-10T02:03:51;2.92;;;1.83;;
43919;SDS011;29578;51.946;5.874;2023-05-10T02:06:20;3.53;;;1.80;;
43919;SDS011;29578;51.946;5.874;2023-05-10T02:08:49;3.45;;;1.88;;
43919;SDS011;29578;51.946;5.874;2023-05-10T02:11:16;3.78;;;1.98;;
43919;SDS011;29578;51.946;5.874;2023-05-10T02:13:43;3.15;;;1.65;;
43919;SDS011;29578;51.946;5.874;2023-05-10T02:16:12;3.25;;;1.85;;
43919;SDS011;29578;51.946;5.874;2023-05-10T02:18:38;3.38;;;1.85;;
43919;SDS011;29578;51.946;5.874;2023-05-10T02:21:06;3.22;;;1.83;;
43919;SDS011;29578;51.946;5.874;2023-05-10T02:23:33;3.13;;;1.83;;
43919;SDS011;29578;51.946;5.874;2023-05-10T02:26:00;2.63;;;1.70;;
43919;SDS011;29578;51.946;5.874;2023-05-10T02:28:28;3.03;;;1.75;;
43919;SDS011;29578;51.946;5.874;2023-05-10T02:30:54;4.20;;;1.90;;
43919;SDS011;29578;51.946;5.874;2023-05-10T02:33:21;3.78;;;2.10;;
43919;SDS011;29578;51.946;5.874;2023-05-10T02:35:47;4.00;;;2.20;;
43919;SDS011;29578;51.946;5.874;2023-05-10T02:38:15;4.13;;;2.35;;
43919;SDS011;29578;51.946;5.874;2023-05-10T02:40:42;3.65;;;2.20;;
43919;SDS011;29578;51.946;5.874;2023-05-10T02:43:11;3.90;;;2.00;;
43919;SDS011;29578;51.946;5.874;2023-05-10T02:45:39;3.03;;;1.75;;
43919;SDS011;29578;51.946;5.874;2023-05-10T02:48:06;4.80;;;2.17;;
43919;SDS011;29578;51.946;5.874;2023-05-10T02:50:33;3.80;;;2.05;;
43919;SDS011;29578;51.946;5.874;2023-05-10T02:53:00;5.38;;;2.53;;
43919;SDS011;29578;51.946;5.874;2023-05-10T02:55:31;4.85;;;2.50;;
43919;SDS011;29578;51.946;5.874;2023-05-10T02:58:01;5.57;;;2.63;;
43919;SDS011;29578;51.946;5.874;2023-05-10T03:00:28;4.75;;;2.50;;
43919;SDS011;29578;51.946;5.874;2023-05-10T03:02:54;5.38;;;2.45;;
43919;SDS011;29578;51.946;5.874;2023-05-10T03:05:20;4.20;;;2.53;;
43919;SDS011;29578;51.946;5.874;2023-05-10T03:07:45;6.95;;;3.15;;
43919;SDS011;29578;51.946;5.874;2023-05-10T03:10:12;5.45;;;2.95;;
43919;SDS011;29578;51.946;5.874;2023-05-10T03:18:22;5.25;;;2.70;;
43919;SDS011;29578;51.946;5.874;2023-05-10T03:20:56;4.93;;;2.60;;
43919;SDS011;29578;51.946;5.874;2023-05-10T03:23:27;5.97;;;3.15;;
43919;SDS011;29578;51.946;5.874;2023-05-10T03:25:59;4.72;;;2.50;;
43919;SDS011;29578;51.946;5.874;2023-05-10T03:28:25;5.65;;;3.00;;
43919;SDS011;29578;51.946;5.874;2023-05-10T03:30:52;4.95;;;2.58;;
43919;SDS011;29578;51.946;5.874;2023-05-10T03:33:19;4.85;;;2.63;;
43919;SDS011;29578;51.946;5.874;2023-05-10T03:35:45;4.53;;;2.58;;
43919;SDS011;29578;51.946;5.874;2023-05-10T03:38:11;4.68;;;2.72;;
43919;SDS011;29578;51.946;5.874;2023-05-10T03:40:37;4.88;;;2.35;;
43919;SDS011;29578;51.946;5.874;2023-05-10T03:43:03;5.45;;;2.78;;
43919;SDS011;29578;51.946;5.874;2023-05-10T03:45:29;4.32;;;2.38;;
43919;SDS011;29578;51.946;5.874;2023-05-10T03:47:55;6.50;;;2.88;;
43919;SDS011;29578;51.946;5.874;2023-05-10T03:50:22;4.97;;;2.75;;
43919;SDS011;29578;51.946;5.874;2023-05-10T03:52:48;3.95;;;2.25;;
43919;SDS011;29578;51.946;5.874;2023-05-10T03:55:13;4.70;;;2.40;;
43919;SDS011;29578;51.946;5.874;2023-05-10T03:57:39;4.55;;;2.53;;
43919;SDS011;29578;51.946;5.874;2023-05-10T04:00:05;4.25;;;2.58;;
43919;SDS011;29578;51.946;5.874;2023-05-10T04:02:31;4.25;;;2.17;;
43919;SDS011;29578;51.946;5.874;2023-05-10T04:04:56;4.63;;;2.28;;
43919;SDS011;29578;51.946;5.874;2023-05-10T04:07:22;4.63;;;2.28;;
43919;SDS011;29578;51.946;5.874;2023-05-10T04:09:48;4.22;;;2.40;;
43919;SDS011;29578;51.946;5.874;2023-05-10T04:12:13;4.55;;;2.10;;
43919;SDS011;29578;51.946;5.874;2023-05-10T04:14:39;4.00;;;1.98;;
43919;SDS011;29578;51.946;5.874;2023-05-10T04:17:05;3.30;;;1.80;;
43919;SDS011;29578;51.946;5.874;2023-05-10T04:19:31;5.32;;;2.40;;
43919;SDS011;29578;51.946;5.874;2023-05-10T04:21:56;4.15;;;2.15;;
43919;SDS011;29578;51.946;5.874;2023-05-10T04:24:23;4.38;;;2.33;;
43919;SDS011;29578;51.946;5.874;2023-05-10T04:26:48;3.88;;;2.05;;
43919;SDS011;29578;51.946;5.874;2023-05-10T04:29:14;3.60;;;2.17;;
43919;SDS011;29578;51.946;5.874;2023-05-10T04:31:40;4.20;;;2.20;;
43919;SDS011;29578;51.946;5.874;2023-05-10T04:34:05;3.60;;;1.83;;
43919;SDS011;29578;51.946;5.874;2023-05-10T04:36:31;3.55;;;1.77;;
43919;SDS011;29578;51.946;5.874;2023-05-10T04:39:00;3.25;;;1.95;;
43919;SDS011;29578;51.946;5.874;2023-05-10T04:41:27;2.97;;;1.70;;
43919;SDS011;29578;51.946;5.874;2023-05-10T04:43:53;4.35;;;2.15;;
43919;SDS011;29578;51.946;5.874;2023-05-10T04:46:19;3.83;;;1.95;;
43919;SDS011;29578;51.946;5.874;2023-05-10T04:48:44;3.17;;;1.90;;
43919;SDS011;29578;51.946;5.874;2023-05-10T04:51:10;3.35;;;1.83;;
43919;SDS011;29578;51.946;5.874;2023-05-10T04:53:36;4.15;;;2.22;;
43919;SDS011;29578;51.946;5.874;2023-05-10T04:56:01;4.72;;;2.08;;
43919;SDS011;29578;51.946;5.874;2023-05-10T04:58:27;4.55;;;2.30;;
43919;SDS011;29578;51.946;5.874;2023-05-10T05:00:53;4.13;;;2.22;;
43919;SDS011;29578;51.946;5.874;2023-05-10T05:03:18;3.28;;;1.85;;
43919;SDS011;29578;51.946;5.874;2023-05-10T05:05:44;4.15;;;1.95;;
43919;SDS011;29578;51.946;5.874;2023-05-10T05:08:09;3.80;;;1.88;;
43919;SDS011;29578;51.946;5.874;2023-05-10T05:10:35;3.85;;;1.98;;
43919;SDS011;29578;51.946;5.874;2023-05-10T05:13:01;4.03;;;2.10;;
43919;SDS011;29578;51.946;5.874;2023-05-10T05:15:26;4.07;;;2.22;;
43919;SDS011;29578;51.946;5.874;2023-05-10T05:17:52;3.35;;;2.10;;
43919;SDS011;29578;51.946;5.874;2023-05-10T05:20:18;4.55;;;2.20;;
43919;SDS011;29578;51.946;5.874;2023-05-10T05:22:44;3.55;;;1.77;;
43919;SDS011;29578;51.946;5.874;2023-05-10T05:25:09;3.92;;;1.90;;
43919;SDS011;29578;51.946;5.874;2023-05-10T05:27:36;4.38;;;2.15;;
43919;SDS011;29578;51.946;5.874;2023-05-10T05:30:02;4.47;;;2.17;;
43919;SDS011;29578;51.946;5.874;2023-05-10T05:32:29;3.65;;;2.10;;
43919;SDS011;29578;51.946;5.874;2023-05-10T05:34:55;3.72;;;2.00;;
43919;SDS011;29578;51.946;5.874;2023-05-10T05:37:21;3.67;;;1.88;;
43919;SDS011;29578;51.946;5.874;2023-05-10T05:39:47;4.18;;;2.00;;
43919;SDS011;29578;51.946;5.874;2023-05-10T05:42:13;5.07;;;2.67;;
43919;SDS011;29578;51.946;5.874;2023-05-10T05:44:40;4.15;;;2.22;;
43919;SDS011;29578;51.946;5.874;2023-05-10T05:47:06;3.90;;;2.15;;
43919;SDS011;29578;51.946;5.874;2023-05-10T05:49:32;4.25;;;2.30;;
43919;SDS011;29578;51.946;5.874;2023-05-10T05:51:58;3.80;;;1.80;;
43919;SDS011;29578;51.946;5.874;2023-05-10T05:54:25;4.20;;;1.95;;
43919;SDS011;29578;51.946;5.874;2023-05-10T05:56:53;4.07;;;2.45;;
43919;SDS011;29578;51.946;5.874;2023-05-10T05:59:20;3.42;;;1.92;;
43919;SDS011;29578;51.946;5.874;2023-05-10T06:01:46;4.22;;;1.92;;
43919;SDS011;29578;51.946;5.874;2023-05-10T06:04:12;3.45;;;1.92;;
43919;SDS011;29578;51.946;5.874;2023-05-10T06:06:37;3.20;;;1.70;;
43919;SDS011;29578;51.946;5.874;2023-05-10T06:09:03;3.58;;;1.88;;
43919;SDS011;29578;51.946;5.874;2023-05-10T06:11:29;3.03;;;1.65;;
43919;SDS011;29578;51.946;5.874;2023-05-10T06:14:01;3.25;;;1.85;;
43919;SDS011;29578;51.946;5.874;2023-05-10T06:16:28;3.15;;;1.77;;
43919;SDS011;29578;51.946;5.874;2023-05-10T06:18:54;3.55;;;1.95;;
43919;SDS011;29578;51.946;5.874;2023-05-10T06:21:20;3.63;;;1.85;;
43919;SDS011;29578;51.946;5.874;2023-05-10T06:23:46;3.22;;;1.80;;
43919;SDS011;29578;51.946;5.874;2023-05-10T06:26:11;2.85;;;1.70;;
43919;SDS011;29578;51.946;5.874;2023-05-10T06:28:38;4.32;;;2.28;;
43919;SDS011;29578;51.946;5.874;2023-05-10T06:31:04;3.75;;;1.80;;
43919;SDS011;29578;51.946;5.874;2023-05-10T06:33:31;3.75;;;1.95;;
43919;SDS011;29578;51.946;5.874;2023-05-10T06:35:57;3.58;;;1.98;;
43919;SDS011;29578;51.946;5.874;2023-05-10T06:38:23;3.15;;;2.00;;
43919;SDS011;29578;51.946;5.874;2023-05-10T06:40:49;4.45;;;2.30;;
43919;SDS011;29578;51.946;5.874;2023-05-10T06:43:15;3.78;;;2.00;;
43919;SDS011;29578;51.946;5.874;2023-05-10T06:45:40;4.53;;;2.40;;
43919;SDS011;29578;51.946;5.874;2023-05-10T06:48:06;4.35;;;2.25;;
43919;SDS011;29578;51.946;5.874;2023-05-10T06:50:32;3.55;;;2.15;;
43919;SDS011;29578;51.946;5.874;2023-05-10T06:53:03;3.80;;;2.10;;
43919;SDS011;29578;51.946;5.874;2023-05-10T06:55:28;4.95;;;2.10;;
43919;SDS011;29578;51.946;5.874;2023-05-10T06:57:57;4.57;;;2.50;;
43919;SDS011;29578;51.946;5.874;2023-05-10T07:00:33;4.70;;;2.63;;
43919;SDS011;29578;51.946;5.874;2023-05-10T07:03:51;4.35;;;2.30;;
43919;SDS011;29578;51.946;5.874;2023-05-10T07:09:55;3.38;;;1.75;;
43919;SDS011;29578;51.946;5.874;2023-05-10T07:12:22;3.22;;;1.95;;
43919;SDS011;29578;51.946;5.874;2023-05-10T07:15:00;3.65;;;2.08;;
43919;SDS011;29578;51.946;5.874;2023-05-10T07:17:26;4.78;;;2.40;;
43919;SDS011;29578;51.946;5.874;2023-05-10T07:20:48;5.65;;;2.88;;
43919;SDS011;29578;51.946;5.874;2023-05-10T07:27:33;4.07;;;1.88;;
43919;SDS011;29578;51.946;5.874;2023-05-10T07:30:02;5.25;;;2.65;;
43919;SDS011;29578;51.946;5.874;2023-05-10T07:39:29;4.38;;;2.38;;
43919;SDS011;29578;51.946;5.874;2023-05-10T07:41:55;3.97;;;2.22;;
43919;SDS011;29578;51.946;5.874;2023-05-10T07:44:38;4.72;;;2.40;;
43919;SDS011;29578;51.946;5.874;2023-05-10T07:47:04;3.88;;;2.17;;
43919;SDS011;29578;51.946;5.874;2023-05-10T07:50:05;4.72;;;2.40;;
43919;SDS011;29578;51.946;5.874;2023-05-10T07:52:50;4.28;;;2.30;;
43919;SDS011;29578;51.946;5.874;2023-05-10T07:58:25;5.43;;;2.55;;
43919;SDS011;29578;51.946;5.874;2023-05-10T08:04:50;5.50;;;2.67;;
43919;SDS011;29578;51.946;5.874;2023-05-10T08:08:10;3.42;;;2.10;;
43919;SDS011;29578;51.946;5.874;2023-05-10T08:11:00;3.85;;;1.98;;
43919;SDS011;29578;51.946;5.874;2023-05-10T08:13:55;5.03;;;2.58;;
43919;SDS011;29578;51.946;5.874;2023-05-10T08:16:21;5.75;;;2.78;;
43919;SDS011;29578;51.946;5.874;2023-05-10T08:18:47;5.80;;;2.70;;
43919;SDS011;29578;51.946;5.874;2023-05-10T08:21:14;5.40;;;2.90;;
43919;SDS011;29578;51.946;5.874;2023-05-10T08:23:40;5.97;;;3.15;;
43919;SDS011;29578;51.946;5.874;2023-05-10T08:26:06;7.88;;;3.20;;
43919;SDS011;29578;51.946;5.874;2023-05-10T08:28:32;7.28;;;3.30;;
43919;SDS011;29578;51.946;5.874;2023-05-10T08:31:00;6.00;;;3.17;;
43919;SDS011;29578;51.946;5.874;2023-05-10T08:33:35;6.55;;;3.50;;
43919;SDS011;29578;51.946;5.874;2023-05-10T08:36:08;5.68;;;3.10;;
43919;SDS011;29578;51.946;5.874;2023-05-10T08:38:39;7.18;;;3.25;;
43919;SDS011;29578;51.946;5.874;2023-05-10T08:41:10;5.80;;;3.53;;
43919;SDS011;29578;51.946;5.874;2023-05-10T08:43:50;5.07;;;3.28;;
43919;SDS011;29578;51.946;5.874;2023-05-10T08:46:19;4.35;;;2.55;;
43919;SDS011;29578;51.946;5.874;2023-05-10T08:48:46;4.93;;;2.58;;
43919;SDS011;29578;51.946;5.874;2023-05-10T08:51:14;6.43;;;3.47;;
43919;SDS011;29578;51.946;5.874;2023-05-10T08:53:43;5.90;;;2.50;;
43919;SDS011;29578;51.946;5.874;2023-05-10T08:56:15;6.28;;;3.05;;
43919;SDS011;29578;51.946;5.874;2023-05-10T08:58:48;4.93;;;2.60;;
43919;SDS011;29578;51.946;5.874;2023-05-10T09:01:31;5.07;;;2.88;;
43919;SDS011;29578;51.946;5.874;2023-05-10T09:04:09;4.15;;;2.17;;
43919;SDS011;29578;51.946;5.874;2023-05-10T09:06:42;3.08;;;2.03;;
43919;SDS011;29578;51.946;5.874;2023-05-10T09:09:12;3.92;;;2.30;;
43919;SDS011;29578;51.946;5.874;2023-05-10T09:11:39;3.67;;;2.08;;
43919;SDS011;29578;51.946;5.874;2023-05-10T09:14:06;3.33;;;1.85;;
43919;SDS011;29578;51.946;5.874;2023-05-10T09:16:32;2.58;;;1.77;;
43919;SDS011;29578;51.946;5.874;2023-05-10T09:18:58;2.42;;;1.52;;
43919;SDS011;29578;51.946;5.874;2023-05-10T09:21:24;3.33;;;1.85;;
43919;SDS011;29578;51.946;5.874;2023-05-10T09:23:51;2.25;;;1.65;;
43919;SDS011;29578;51.946;5.874;2023-05-10T09:26:21;2.50;;;1.55;;
43919;SDS011;29578;51.946;5.874;2023-05-10T09:28:50;1.30;;;1.17;;
43919;SDS011;29578;51.946;5.874;2023-05-10T09:31:17;1.73;;;1.20;;
43919;SDS011;29578;51.946;5.874;2023-05-10T09:33:44;1.55;;;1.20;;
43919;SDS011;29578;51.946;5.874;2023-05-10T09:36:11;1.92;;;1.33;;
43919;SDS011;29578;51.946;5.874;2023-05-10T09:41:19;2.50;;;1.35;;
43919;SDS011;29578;51.946;5.874;2023-05-10T09:43:46;1.80;;;1.30;;
43919;SDS011;29578;51.946;5.874;2023-05-10T09:46:15;2.65;;;1.40;;
43919;SDS011;29578;51.946;5.874;2023-05-10T09:48:43;2.42;;;1.42;;
43919;SDS011;29578;51.946;5.874;2023-05-10T10:02:19;1.70;;;1.20;;
43919;SDS011;29578;51.946;5.874;2023-05-10T10:04:45;2.20;;;1.33;;
43919;SDS011;29578;51.946;5.874;2023-05-10T10:07:17;2.33;;;1.60;;
43919;SDS011;29578;51.946;5.874;2023-05-10T10:09:48;1.77;;;1.20;;
43919;SDS011;29578;51.946;5.874;2023-05-10T10:12:15;1.13;;;1.00;;
43919;SDS011;29578;51.946;5.874;2023-05-10T10:14:41;1.90;;;1.20;;
43919;SDS011;29578;51.946;5.874;2023-05-10T10:17:08;1.83;;;1.25;;
43919;SDS011;29578;51.946;5.874;2023-05-10T10:19:35;1.63;;;1.30;;
43919;SDS011;29578;51.946;5.874;2023-05-10T10:22:02;2.03;;;1.33;;
43919;SDS011;29578;51.946;5.874;2023-05-10T10:24:36;2.67;;;1.45;;
43919;SDS011;29578;51.946;5.874;2023-05-10T10:27:12;2.15;;;1.35;;
43919;SDS011;29578;51.946;5.874;2023-05-10T10:32:21;2.17;;;1.10;;
43919;SDS011;29578;51.946;5.874;2023-05-10T10:34:55;1.42;;;0.95;;
43919;SDS011;29578;51.946;5.874;2023-05-10T10:37:21;2.17;;;1.30;;
43919;SDS011;29578;51.946;5.874;2023-05-10T10:39:48;2.42;;;1.63;;
43919;SDS011;29578;51.946;5.874;2023-05-10T10:42:15;2.80;;;1.50;;
43919;SDS011;29578;51.946;5.874;2023-05-10T10:45:16;1.65;;;1.17;;
43919;SDS011;29578;51.946;5.874;2023-05-10T10:47:42;2.30;;;1.35;;
43919;SDS011;29578;51.946;5.874;2023-05-10T10:50:08;3.38;;;1.60;;
43919;SDS011;29578;51.946;5.874;2023-05-10T10:52:45;1.20;;;1.00;;
43919;SDS011;29578;51.946;5.874;2023-05-10T11:02:54;2.65;;;1.70;;
43919;SDS011;29578;51.946;5.874;2023-05-10T11:05:38;3.13;;;1.83;;
43919;SDS011;29578;51.946;5.874;2023-05-10T11:08:17;2.65;;;1.42;;
43919;SDS011;29578;51.946;5.874;2023-05-10T11:11:02;2.38;;;1.40;;
43919;SDS011;29578;51.946;5.874;2023-05-10T11:16:10;1.88;;;1.40;;
43919;SDS011;29578;51.946;5.874;2023-05-10T11:18:38;2.33;;;1.48;;
43919;SDS011;29578;51.946;5.874;2023-05-10T11:21:04;2.70;;;1.67;;
43919;SDS011;29578;51.946;5.874;2023-05-10T11:23:31;2.80;;;1.60;;
43919;SDS011;29578;51.946;5.874;2023-05-10T11:26:12;1.73;;;1.20;;
43919;SDS011;29578;51.946;5.874;2023-05-10T11:28:49;2.03;;;1.17;;
43919;SDS011;29578;51.946;5.874;2023-05-10T11:31:16;2.45;;;1.70;;
43919;SDS011;29578;51.946;5.874;2023-05-10T11:33:44;2.97;;;1.77;;
43919;SDS011;29578;51.946;5.874;2023-05-10T11:36:15;1.80;;;1.27;;
43919;SDS011;29578;51.946;5.874;2023-05-10T11:38:44;2.40;;;1.50;;
43919;SDS011;29578;51.946;5.874;2023-05-10T12:21:11;1.45;;;1.10;;
43919;SDS011;29578;51.946;5.874;2023-05-10T12:45:33;0.95;;;0.90;;
43919;SDS011;29578;51.946;5.874;2023-05-10T12:48:01;1.20;;;1.10;;
43919;SDS011;29578;51.946;5.874;2023-05-10T12:50:30;2.28;;;1.10;;
43919;SDS011;29578;51.946;5.874;2023-05-10T12:53:00;1.80;;;1.20;;
43919;SDS011;29578;51.946;5.874;2023-05-10T12:58:04;1.05;;;0.93;;
43919;SDS011;29578;51.946;5.874;2023-05-10T13:00:40;1.00;;;0.85;;
43919;SDS011;29578;51.946;5.874;2023-05-10T13:14:53;0.68;;;0.60;;
43919;SDS011;29578;51.946;5.874;2023-05-10T13:27:46;1.13;;;0.90;;
43919;SDS011;29578;51.946;5.874;2023-05-10T13:30:12;1.42;;;1.10;;
43919;SDS011;29578;51.946;5.874;2023-05-10T13:32:38;2.13;;;1.10;;
43919;SDS011;29578;51.946;5.874;2023-05-10T13:35:03;1.40;;;1.10;;
43919;SDS011;29578;51.946;5.874;2023-05-10T13:37:30;1.98;;;1.45;;
43919;SDS011;29578;51.946;5.874;2023-05-10T13:39:57;2.08;;;1.40;;
43919;SDS011;29578;51.946;5.874;2023-05-10T13:42:22;2.30;;;1.20;;
43919;SDS011;29578;51.946;5.874;2023-05-10T13:44:49;1.23;;;1.10;;
43919;SDS011;29578;51.946;5.874;2023-05-10T13:47:15;1.98;;;1.45;;
43919;SDS011;29578;51.946;5.874;2023-05-10T13:49:41;2.70;;;1.27;;
43919;SDS011;29578;51.946;5.874;2023-05-10T13:52:10;2.53;;;1.52;;
43919;SDS011;29578;51.946;5.874;2023-05-10T13:54:36;2.45;;;1.40;;
43919;SDS011;29578;51.946;5.874;2023-05-10T13:57:03;1.40;;;1.30;;
43919;SDS011;29578;51.946;5.874;2023-05-10T13:59:29;2.03;;;1.52;;
43919;SDS011;29578;51.946;5.874;2023-05-10T14:01:56;1.50;;;1.40;;
43919;SDS011;29578;51.946;5.874;2023-05-10T14:04:23;1.33;;;1.23;;
43919;SDS011;29578;51.946;5.874;2023-05-10T14:06:48;2.38;;;1.42;;
43919;SDS011;29578;51.946;5.874;2023-05-10T14:09:14;1.60;;;1.20;;
43919;SDS011;29578;51.946;5.874;2023-05-10T14:11:40;2.15;;;1.38;;
43919;SDS011;29578;51.946;5.874;2023-05-10T14:14:08;1.67;;;1.42;;
43919;SDS011;29578;51.946;5.874;2023-05-10T14:16:34;1.50;;;1.15;;
43919;SDS011;29578;51.946;5.874;2023-05-10T14:19:00;1.50;;;1.30;;
43919;SDS011;29578;51.946;5.874;2023-05-10T14:21:26;1.80;;;1.40;;
43919;SDS011;29578;51.946;5.874;2023-05-10T14:23:54;2.85;;;1.77;;
43919;SDS011;29578;51.946;5.874;2023-05-10T14:26:20;1.90;;;1.45;;
43919;SDS011;29578;51.946;5.874;2023-05-10T14:28:46;2.20;;;1.70;;
43919;SDS011;29578;51.946;5.874;2023-05-10T14:31:12;1.83;;;1.50;;
43919;SDS011;29578;51.946;5.874;2023-05-10T14:33:39;1.77;;;1.50;;
43919;SDS011;29578;51.946;5.874;2023-05-10T14:36:05;2.97;;;1.15;;
43919;SDS011;29578;51.946;5.874;2023-05-10T14:38:33;2.90;;;1.40;;
43919;SDS011;29578;51.946;5.874;2023-05-10T14:40:59;1.20;;;1.10;;
43919;SDS011;29578;51.946;5.874;2023-05-10T14:43:25;1.40;;;1.20;;
43919;SDS011;29578;51.946;5.874;2023-05-10T14:45:52;1.70;;;1.38;;
43919;SDS011;29578;51.946;5.874;2023-05-10T14:48:18;1.30;;;1.10;;
43919;SDS011;29578;51.946;5.874;2023-05-10T14:50:43;1.00;;;0.90;;
43919;SDS011;29578;51.946;5.874;2023-05-10T14:53:09;1.50;;;1.30;;
43919;SDS011;29578;51.946;5.874;2023-05-10T14:55:35;1.52;;;1.17;;
43919;SDS011;29578;51.946;5.874;2023-05-10T14:58:02;1.50;;;1.27;;
43919;SDS011;29578;51.946;5.874;2023-05-10T15:00:28;1.67;;;1.17;;
43919;SDS011;29578;51.946;5.874;2023-05-10T15:02:54;1.13;;;1.02;;
43919;SDS011;29578;51.946;5.874;2023-05-10T15:05:20;1.20;;;1.00;;
43919;SDS011;29578;51.946;5.874;2023-05-10T15:07:46;1.73;;;1.30;;
43919;SDS011;29578;51.946;5.874;2023-05-10T15:10:11;2.30;;;1.10;;
43919;SDS011;29578;51.946;5.874;2023-05-10T15:12:37;1.63;;;1.00;;
43919;SDS011;29578;51.946;5.874;2023-05-10T15:15:04;1.33;;;0.93;;
43919;SDS011;29578;51.946;5.874;2023-05-10T15:17:30;1.33;;;0.90;;
43919;SDS011;29578;51.946;5.874;2023-05-10T15:19:56;0.60;;;0.60;;
43919;SDS011;29578;51.946;5.874;2023-05-10T15:22:22;2.13;;;0.80;;
43919;SDS011;29578;51.946;5.874;2023-05-10T15:24:47;1.00;;;0.70;;
43919;SDS011;29578;51.946;5.874;2023-05-10T15:27:13;0.70;;;0.70;;
43919;SDS011;29578;51.946;5.874;2023-05-10T15:29:39;0.73;;;0.55;;
43919;SDS011;29578;51.946;5.874;2023-05-10T15:32:04;0.50;;;0.50;;
43919;SDS011;29578;51.946;5.874;2023-05-10T15:34:30;0.63;;;0.50;;
43919;SDS011;29578;51.946;5.874;2023-05-10T15:36:56;0.77;;;0.63;;
43919;SDS011;29578;51.946;5.874;2023-05-10T15:39:21;0.65;;;0.57;;
43919;SDS011;29578;51.946;5.874;2023-05-10T15:41:47;0.57;;;0.57;;
43919;SDS011;29578;51.946;5.874;2023-05-10T15:44:13;1.30;;;0.50;;
43919;SDS011;29578;51.946;5.874;2023-05-10T15:46:39;0.40;;;0.40;;
43919;SDS011;29578;51.946;5.874;2023-05-10T15:49:05;0.73;;;0.60;;
43919;SDS011;29578;51.946;5.874;2023-05-10T15:51:31;1.17;;;0.65;;
43919;SDS011;29578;51.946;5.874;2023-05-10T15:53:59;1.02;;;0.70;;
43919;SDS011;29578;51.946;5.874;2023-05-10T15:56:26;0.60;;;0.60;;
43919;SDS011;29578;51.946;5.874;2023-05-10T15:58:52;0.73;;;0.60;;
43919;SDS011;29578;51.946;5.874;2023-05-10T16:01:18;0.50;;;0.50;;
43919;SDS011;29578;51.946;5.874;2023-05-10T16:03:44;0.68;;;0.68;;
43919;SDS011;29578;51.946;5.874;2023-05-10T16:06:09;0.63;;;0.63;;
43919;SDS011;29578;51.946;5.874;2023-05-10T16:08:35;0.60;;;0.60;;
43919;SDS011;29578;51.946;5.874;2023-05-10T16:11:03;1.23;;;0.68;;
43919;SDS011;29578;51.946;5.874;2023-05-10T16:13:29;0.50;;;0.50;;
43919;SDS011;29578;51.946;5.874;2023-05-10T16:15:55;0.68;;;0.50;;
43919;SDS011;29578;51.946;5.874;2023-05-10T16:18:22;0.70;;;0.60;;
43919;SDS011;29578;51.946;5.874;2023-05-10T16:20:47;0.70;;;0.68;;
43919;SDS011;29578;51.946;5.874;2023-05-10T16:23:13;1.15;;;0.60;;
43919;SDS011;29578;51.946;5.874;2023-05-10T16:25:39;1.00;;;0.63;;
43919;SDS011;29578;51.946;5.874;2023-05-10T16:28:05;0.75;;;0.70;;
43919;SDS011;29578;51.946;5.874;2023-05-10T16:30:31;0.43;;;0.43;;
43919;SDS011;29578;51.946;5.874;2023-05-10T16:32:57;0.65;;;0.60;;
43919;SDS011;29578;51.946;5.874;2023-05-10T16:35:23;0.75;;;0.73;;
43919;SDS011;29578;51.946;5.874;2023-05-10T16:37:49;0.60;;;0.60;;
43919;SDS011;29578;51.946;5.874;2023-05-10T16:40:15;0.70;;;0.70;;
43919;SDS011;29578;51.946;5.874;2023-05-10T16:42:41;1.00;;;0.50;;
43919;SDS011;29578;51.946;5.874;2023-05-10T16:45:07;0.47;;;0.47;;
43919;SDS011;29578;51.946;5.874;2023-05-10T16:47:33;0.63;;;0.57;;
43919;SDS011;29578;51.946;5.874;2023-05-10T16:50:00;0.40;;;0.40;;
43919;SDS011;29578;51.946;5.874;2023-05-10T16:52:27;1.33;;;0.43;;
43919;SDS011;29578;51.946;5.874;2023-05-10T16:54:53;0.95;;;0.70;;
43919;SDS011;29578;51.946;5.874;2023-05-10T16:57:20;0.60;;;0.60;;
43919;SDS011;29578;51.946;5.874;2023-05-10T16:59:46;0.60;;;0.60;;
43919;SDS011;29578;51.946;5.874;2023-05-10T17:02:12;0.50;;;0.50;;
43919;SDS011;29578;51.946;5.874;2023-05-10T17:04:38;0.60;;;0.50;;
43919;SDS011;29578;51.946;5.874;2023-05-10T17:07:04;0.80;;;0.55;;
43919;SDS011;29578;51.946;5.874;2023-05-10T17:09:29;0.80;;;0.57;;
43919;SDS011;29578;51.946;5.874;2023-05-10T17:11:55;0.40;;;0.40;;
43919;SDS011;29578;51.946;5.874;2023-05-10T17:14:20;0.43;;;0.43;;
43919;SDS011;29578;51.946;5.874;2023-05-10T17:16:47;0.50;;;0.50;;
43919;SDS011;29578;51.946;5.874;2023-05-10T17:19:12;1.08;;;0.60;;